sensor_id;sensor_type;location;lat;lon;timestamp;P1;durP1;ratioP1;P2;durP2;ratioP2
41077;SDS011;26823;42.662;23.352;2023-01-15T11:43:36;15.23;;;9.20;;
41077;SDS011;26823;42.662;23.352;2023-01-15T11:46:28;13.27;;;8.75;;
41077;SDS011;26823;42.662;23.352;2023-01-15T11:49:15;13.45;;;9.00;;
41077;SDS011;26823;42.662;23.352;2023-01-15T11:52:11;12.05;;;7.55;;
41077;SDS011;26823;42.662;23.352;2023-01-15T11:54:41;11.50;;;8.00;;
41077;SDS011;26823;42.662;23.352;2023-01-15T11:57:32;11.75;;;8.40;;
41077;SDS011;26823;42.662;23.352;2023-01-15T12:00:01;7.35;;;5.97;;
41077;SDS011;26823;42.662;23.352;2023-01-15T12:05:13;8.38;;;5.88;;
41077;SDS011;26823;42.662;23.352;2023-01-15T12:07:40;8.02;;;5.57;;
41077;SDS011;26823;42.662;23.352;2023-01-15T12:13:28;9.35;;;5.75;;
41077;SDS011;26823;42.662;23.352;2023-01-15T12:29:50;9.32;;;5.07;;
41077;SDS011;26823;42.662;23.352;2023-01-15T12:32:26;5.85;;;4.88;;
41077;SDS011;26823;42.662;23.352;2023-01-15T12:34:59;8.73;;;5.88;;
41077;SDS011;26823;42.662;23.352;2023-01-15T12:37:35;8.18;;;5.97;;
41077;SDS011;26823;42.662;23.352;2023-01-15T12:40:16;7.72;;;5.55;;
41077;SDS011;26823;42.662;23.352;2023-01-15T12:42:44;9.02;;;6.22;;
41077;SDS011;26823;42.662;23.352;2023-01-15T12:45:31;8.50;;;5.75;;
41077;SDS011;26823;42.662;23.352;2023-01-15T12:48:45;6.32;;;5.10;;
41077;SDS011;26823;42.662;23.352;2023-01-15T12:50:58;7.22;;;4.65;;
41077;SDS011;26823;42.662;23.352;2023-01-15T12:53:45;8.20;;;6.07;;
41077;SDS011;26823;42.662;23.352;2023-01-15T12:56:22;6.88;;;5.15;;
41077;SDS011;26823;42.662;23.352;2023-01-15T12:59:28;8.07;;;4.70;;
41077;SDS011;26823;42.662;23.352;2023-01-15T13:07:35;7.82;;;4.50;;
41077;SDS011;26823;42.662;23.352;2023-01-15T13:10:17;6.22;;;4.28;;
41077;SDS011;26823;42.662;23.352;2023-01-15T13:12:46;9.70;;;4.88;;
41077;SDS011;26823;42.662;23.352;2023-01-15T13:15:12;7.38;;;4.60;;
41077;SDS011;26823;42.662;23.352;2023-01-15T13:23:17;8.10;;;5.60;;
41077;SDS011;26823;42.662;23.352;2023-01-15T13:34:06;7.68;;;5.47;;
41077;SDS011;26823;42.662;23.352;2023-01-15T13:36:41;7.13;;;5.55;;
41077;SDS011;26823;42.662;23.352;2023-01-15T13:39:14;10.60;;;6.28;;
41077;SDS011;26823;42.662;23.352;2023-01-15T13:41:46;7.90;;;5.15;;
41077;SDS011;26823;42.662;23.352;2023-01-15T13:44:33;9.55;;;5.97;;
41077;SDS011;26823;42.662;23.352;2023-01-15T13:47:09;10.98;;;6.22;;
41077;SDS011;26823;42.662;23.352;2023-01-15T13:49:39;13.05;;;6.03;;
41077;SDS011;26823;42.662;23.352;2023-01-15T13:52:21;8.98;;;5.70;;
41077;SDS011;26823;42.662;23.352;2023-01-15T13:54:52;13.38;;;6.70;;
41077;SDS011;26823;42.662;23.352;2023-01-15T13:59:50;10.38;;;5.22;;
41077;SDS011;26823;42.662;23.352;2023-01-15T14:02:22;10.77;;;6.28;;
41077;SDS011;26823;42.662;23.352;2023-01-15T14:04:50;11.23;;;6.55;;
41077;SDS011;26823;42.662;23.352;2023-01-15T14:07:19;11.38;;;7.15;;
41077;SDS011;26823;42.662;23.352;2023-01-15T14:09:54;10.60;;;6.47;;
41077;SDS011;26823;42.662;23.352;2023-01-15T14:12:37;9.48;;;5.80;;
41077;SDS011;26823;42.662;23.352;2023-01-15T14:18:23;7.60;;;5.95;;
41077;SDS011;26823;42.662;23.352;2023-01-15T14:34:38;13.90;;;7.25;;
41077;SDS011;26823;42.662;23.352;2023-01-15T14:36:49;14.43;;;7.53;;
41077;SDS011;26823;42.662;23.352;2023-01-15T14:39:23;12.02;;;6.53;;
41077;SDS011;26823;42.662;23.352;2023-01-15T14:42:02;12.90;;;7.07;;
41077;SDS011;26823;42.662;23.352;2023-01-15T14:45:00;13.45;;;6.65;;
41077;SDS011;26823;42.662;23.352;2023-01-15T14:47:35;14.07;;;7.05;;
41077;SDS011;26823;42.662;23.352;2023-01-15T14:52:49;14.55;;;7.75;;
41077;SDS011;26823;42.662;23.352;2023-01-15T14:55:20;14.88;;;7.82;;
41077;SDS011;26823;42.662;23.352;2023-01-15T14:57:56;16.35;;;8.48;;
41077;SDS011;26823;42.662;23.352;2023-01-15T15:00:38;15.23;;;7.68;;
41077;SDS011;26823;42.662;23.352;2023-01-15T15:06:03;9.90;;;6.15;;
41077;SDS011;26823;42.662;23.352;2023-01-15T15:08:30;12.02;;;6.32;;
41077;SDS011;26823;42.662;23.352;2023-01-15T15:10:58;12.10;;;6.70;;
41077;SDS011;26823;42.662;23.352;2023-01-15T15:13:36;13.00;;;6.85;;
41077;SDS011;26823;42.662;23.352;2023-01-15T15:16:28;11.37;;;6.40;;
41077;SDS011;26823;42.662;23.352;2023-01-15T15:18:59;16.40;;;7.35;;
41077;SDS011;26823;42.662;23.352;2023-01-15T15:21:32;13.80;;;6.60;;
41077;SDS011;26823;42.662;23.352;2023-01-15T15:24:05;15.15;;;7.55;;
41077;SDS011;26823;42.662;23.352;2023-01-15T15:26:39;17.27;;;6.72;;
41077;SDS011;26823;42.662;23.352;2023-01-15T15:31:33;21.92;;;8.25;;
41077;SDS011;26823;42.662;23.352;2023-01-15T15:34:01;14.02;;;6.82;;
41077;SDS011;26823;42.662;23.352;2023-01-15T15:36:31;13.10;;;7.15;;
41077;SDS011;26823;42.662;23.352;2023-01-15T15:39:15;22.45;;;7.63;;
41077;SDS011;26823;42.662;23.352;2023-01-15T15:41:48;13.43;;;6.60;;
41077;SDS011;26823;42.662;23.352;2023-01-15T15:44:39;22.38;;;7.32;;
41077;SDS011;26823;42.662;23.352;2023-01-15T15:47:39;14.13;;;7.53;;
41077;SDS011;26823;42.662;23.352;2023-01-15T15:50:29;12.23;;;6.63;;
41077;SDS011;26823;42.662;23.352;2023-01-15T15:52:56;19.98;;;7.38;;
41077;SDS011;26823;42.662;23.352;2023-01-15T15:55:22;16.35;;;7.43;;
41077;SDS011;26823;42.662;23.352;2023-01-15T15:57:53;12.55;;;7.55;;
41077;SDS011;26823;42.662;23.352;2023-01-15T16:00:37;13.90;;;6.80;;
41077;SDS011;26823;42.662;23.352;2023-01-15T16:03:06;12.82;;;6.80;;
41077;SDS011;26823;42.662;23.352;2023-01-15T16:05:42;11.35;;;7.20;;
41077;SDS011;26823;42.662;23.352;2023-01-15T16:08:17;11.27;;;5.88;;
41077;SDS011;26823;42.662;23.352;2023-01-15T16:10:46;14.98;;;6.85;;
41077;SDS011;26823;42.662;23.352;2023-01-15T16:13:48;17.60;;;8.45;;
41077;SDS011;26823;42.662;23.352;2023-01-15T16:16:08;14.30;;;7.05;;
41077;SDS011;26823;42.662;23.352;2023-01-15T16:21:08;14.15;;;7.18;;
41077;SDS011;26823;42.662;23.352;2023-01-15T16:23:36;17.30;;;7.43;;
41077;SDS011;26823;42.662;23.352;2023-01-15T16:28:30;15.20;;;8.13;;
41077;SDS011;26823;42.662;23.352;2023-01-15T16:31:05;15.98;;;8.13;;
41077;SDS011;26823;42.662;23.352;2023-01-15T16:33:31;17.90;;;8.00;;
41077;SDS011;26823;42.662;23.352;2023-01-15T16:35:57;14.50;;;8.88;;
41077;SDS011;26823;42.662;23.352;2023-01-15T16:38:24;12.98;;;7.80;;
41077;SDS011;26823;42.662;23.352;2023-01-15T16:40:50;13.50;;;7.70;;
41077;SDS011;26823;42.662;23.352;2023-01-15T16:43:20;14.73;;;7.75;;
41077;SDS011;26823;42.662;23.352;2023-01-15T16:50:47;13.35;;;7.20;;
41077;SDS011;26823;42.662;23.352;2023-01-15T16:56:00;12.80;;;7.55;;
41077;SDS011;26823;42.662;23.352;2023-01-15T16:58:36;13.40;;;6.68;;
41077;SDS011;26823;42.662;23.352;2023-01-15T17:04:00;13.43;;;7.22;;
41077;SDS011;26823;42.662;23.352;2023-01-15T17:06:26;15.77;;;7.55;;
41077;SDS011;26823;42.662;23.352;2023-01-15T17:08:52;16.30;;;7.38;;
41077;SDS011;26823;42.662;23.352;2023-01-15T17:13:46;12.40;;;6.70;;
41077;SDS011;26823;42.662;23.352;2023-01-15T17:18:36;16.55;;;8.43;;
41077;SDS011;26823;42.662;23.352;2023-01-15T17:21:02;15.70;;;7.18;;
41077;SDS011;26823;42.662;23.352;2023-01-15T17:23:28;14.95;;;7.63;;
41077;SDS011;26823;42.662;23.352;2023-01-15T17:25:57;16.67;;;6.95;;
41077;SDS011;26823;42.662;23.352;2023-01-15T17:28:23;13.05;;;7.45;;
41077;SDS011;26823;42.662;23.352;2023-01-15T17:30:50;14.40;;;6.97;;
41077;SDS011;26823;42.662;23.352;2023-01-15T17:33:18;18.05;;;7.55;;
41077;SDS011;26823;42.662;23.352;2023-01-15T17:35:44;19.73;;;7.90;;
41077;SDS011;26823;42.662;23.352;2023-01-15T17:38:12;14.75;;;7.90;;
41077;SDS011;26823;42.662;23.352;2023-01-15T17:40:39;14.43;;;7.07;;
41077;SDS011;26823;42.662;23.352;2023-01-15T17:43:05;20.52;;;9.20;;
41077;SDS011;26823;42.662;23.352;2023-01-15T17:45:31;24.52;;;10.48;;
41077;SDS011;26823;42.662;23.352;2023-01-15T17:47:57;24.63;;;10.77;;
41077;SDS011;26823;42.662;23.352;2023-01-15T17:50:23;21.98;;;10.98;;
41077;SDS011;26823;42.662;23.352;2023-01-15T17:52:49;15.73;;;7.95;;
41077;SDS011;26823;42.662;23.352;2023-01-15T17:55:19;15.18;;;8.10;;
41077;SDS011;26823;42.662;23.352;2023-01-15T17:58:05;13.20;;;6.35;;
41077;SDS011;26823;42.662;23.352;2023-01-15T18:00:53;16.60;;;7.97;;
41077;SDS011;26823;42.662;23.352;2023-01-15T18:03:38;13.98;;;5.82;;
41077;SDS011;26823;42.662;23.352;2023-01-15T18:06:29;13.10;;;7.25;;
41077;SDS011;26823;42.662;23.352;2023-01-15T18:08:56;17.60;;;8.07;;
41077;SDS011;26823;42.662;23.352;2023-01-15T18:11:24;15.65;;;7.63;;
41077;SDS011;26823;42.662;23.352;2023-01-15T18:13:50;17.48;;;7.68;;
41077;SDS011;26823;42.662;23.352;2023-01-15T18:16:16;17.98;;;8.63;;
41077;SDS011;26823;42.662;23.352;2023-01-15T18:18:42;13.55;;;7.22;;
41077;SDS011;26823;42.662;23.352;2023-01-15T18:21:07;15.90;;;7.10;;
41077;SDS011;26823;42.662;23.352;2023-01-15T18:23:33;18.13;;;9.52;;
41077;SDS011;26823;42.662;23.352;2023-01-15T18:26:03;13.88;;;8.00;;
41077;SDS011;26823;42.662;23.352;2023-01-15T18:28:33;15.80;;;7.85;;
41077;SDS011;26823;42.662;23.352;2023-01-15T18:31:01;13.63;;;8.57;;
41077;SDS011;26823;42.662;23.352;2023-01-15T18:33:27;16.02;;;8.93;;
41077;SDS011;26823;42.662;23.352;2023-01-15T18:36:03;15.80;;;8.75;;
41077;SDS011;26823;42.662;23.352;2023-01-15T18:38:37;18.73;;;9.98;;
41077;SDS011;26823;42.662;23.352;2023-01-15T18:41:05;19.67;;;10.73;;
41077;SDS011;26823;42.662;23.352;2023-01-15T18:43:32;27.10;;;11.48;;
41077;SDS011;26823;42.662;23.352;2023-01-15T18:46:16;27.90;;;11.07;;
41077;SDS011;26823;42.662;23.352;2023-01-15T18:48:59;25.87;;;12.23;;
41077;SDS011;26823;42.662;23.352;2023-01-15T18:51:25;24.30;;;11.68;;
41077;SDS011;26823;42.662;23.352;2023-01-15T18:53:50;21.45;;;11.65;;
41077;SDS011;26823;42.662;23.352;2023-01-15T18:56:16;23.10;;;11.23;;
41077;SDS011;26823;42.662;23.352;2023-01-15T18:59:01;25.40;;;12.23;;
41077;SDS011;26823;42.662;23.352;2023-01-15T19:01:26;22.42;;;11.10;;
41077;SDS011;26823;42.662;23.352;2023-01-15T19:03:52;27.45;;;13.10;;
41077;SDS011;26823;42.662;23.352;2023-01-15T19:06:17;24.20;;;11.68;;
41077;SDS011;26823;42.662;23.352;2023-01-15T19:08:42;20.55;;;11.38;;
41077;SDS011;26823;42.662;23.352;2023-01-15T19:11:09;22.48;;;11.65;;
41077;SDS011;26823;42.662;23.352;2023-01-15T19:13:35;27.65;;;11.88;;
41077;SDS011;26823;42.662;23.352;2023-01-15T19:16:07;27.80;;;13.32;;
41077;SDS011;26823;42.662;23.352;2023-01-15T19:18:52;20.95;;;11.63;;
41077;SDS011;26823;42.662;23.352;2023-01-15T19:21:18;20.50;;;11.00;;
41077;SDS011;26823;42.662;23.352;2023-01-15T19:23:45;23.73;;;11.90;;
41077;SDS011;26823;42.662;23.352;2023-01-15T19:26:11;18.75;;;10.55;;
41077;SDS011;26823;42.662;23.352;2023-01-15T19:28:37;27.65;;;11.73;;
41077;SDS011;26823;42.662;23.352;2023-01-15T19:31:06;20.98;;;11.15;;
41077;SDS011;26823;42.662;23.352;2023-01-15T19:33:55;22.08;;;9.05;;
41077;SDS011;26823;42.662;23.352;2023-01-15T19:36:22;24.48;;;10.98;;
41077;SDS011;26823;42.662;23.352;2023-01-15T19:38:48;21.80;;;11.00;;
41077;SDS011;26823;42.662;23.352;2023-01-15T19:41:13;21.60;;;11.70;;
41077;SDS011;26823;42.662;23.352;2023-01-15T19:43:57;25.55;;;11.88;;
41077;SDS011;26823;42.662;23.352;2023-01-15T19:46:41;24.55;;;12.52;;
41077;SDS011;26823;42.662;23.352;2023-01-15T19:49:33;20.15;;;10.13;;
41077;SDS011;26823;42.662;23.352;2023-01-15T19:52:18;31.38;;;13.88;;
41077;SDS011;26823;42.662;23.352;2023-01-15T19:55:06;28.27;;;13.13;;
41077;SDS011;26823;42.662;23.352;2023-01-15T19:57:35;33.17;;;15.00;;
41077;SDS011;26823;42.662;23.352;2023-01-15T20:00:02;31.13;;;14.18;;
41077;SDS011;26823;42.662;23.352;2023-01-15T20:02:28;26.38;;;14.63;;
41077;SDS011;26823;42.662;23.352;2023-01-15T20:04:54;25.77;;;13.63;;
41077;SDS011;26823;42.662;23.352;2023-01-15T20:07:19;27.63;;;14.50;;
41077;SDS011;26823;42.662;23.352;2023-01-15T20:09:45;27.73;;;16.33;;
41077;SDS011;26823;42.662;23.352;2023-01-15T20:12:10;29.80;;;16.15;;
41077;SDS011;26823;42.662;23.352;2023-01-15T20:14:55;28.52;;;15.90;;
41077;SDS011;26823;42.662;23.352;2023-01-15T20:17:20;30.88;;;17.40;;
41077;SDS011;26823;42.662;23.352;2023-01-15T20:19:46;39.67;;;18.48;;
41077;SDS011;26823;42.662;23.352;2023-01-15T20:22:12;33.58;;;17.70;;
41077;SDS011;26823;42.662;23.352;2023-01-15T20:24:38;33.13;;;17.75;;
41077;SDS011;26823;42.662;23.352;2023-01-15T20:27:08;34.15;;;17.85;;
41077;SDS011;26823;42.662;23.352;2023-01-15T20:29:35;31.63;;;16.30;;
41077;SDS011;26823;42.662;23.352;2023-01-15T20:32:00;34.92;;;17.80;;
41077;SDS011;26823;42.662;23.352;2023-01-15T20:34:25;33.72;;;16.70;;
41077;SDS011;26823;42.662;23.352;2023-01-15T20:36:51;40.33;;;17.83;;
41077;SDS011;26823;42.662;23.352;2023-01-15T20:39:16;39.15;;;18.23;;
41077;SDS011;26823;42.662;23.352;2023-01-15T20:41:42;35.20;;;17.92;;
41077;SDS011;26823;42.662;23.352;2023-01-15T20:44:26;39.95;;;18.90;;
41077;SDS011;26823;42.662;23.352;2023-01-15T20:47:10;27.27;;;14.10;;
41077;SDS011;26823;42.662;23.352;2023-01-15T20:49:54;31.52;;;16.90;;
41077;SDS011;26823;42.662;23.352;2023-01-15T20:52:19;34.67;;;19.65;;
41077;SDS011;26823;42.662;23.352;2023-01-15T20:54:45;41.45;;;21.42;;
41077;SDS011;26823;42.662;23.352;2023-01-15T20:57:10;36.67;;;19.88;;
41077;SDS011;26823;42.662;23.352;2023-01-15T20:59:43;43.17;;;19.48;;
41077;SDS011;26823;42.662;23.352;2023-01-15T21:02:11;38.88;;;20.05;;
41077;SDS011;26823;42.662;23.352;2023-01-15T21:04:37;42.33;;;21.45;;
41077;SDS011;26823;42.662;23.352;2023-01-15T21:07:02;40.92;;;21.10;;
41077;SDS011;26823;42.662;23.352;2023-01-15T21:09:29;38.22;;;19.52;;
41077;SDS011;26823;42.662;23.352;2023-01-15T21:11:54;35.72;;;16.88;;
41077;SDS011;26823;42.662;23.352;2023-01-15T21:14:19;35.28;;;19.25;;
41077;SDS011;26823;42.662;23.352;2023-01-15T21:16:45;42.10;;;19.98;;
41077;SDS011;26823;42.662;23.352;2023-01-15T21:19:10;44.60;;;21.05;;
41077;SDS011;26823;42.662;23.352;2023-01-15T21:21:36;39.38;;;19.60;;
41077;SDS011;26823;42.662;23.352;2023-01-15T21:24:02;33.47;;;18.23;;
41077;SDS011;26823;42.662;23.352;2023-01-15T21:26:28;38.00;;;18.80;;
41077;SDS011;26823;42.662;23.352;2023-01-15T21:28:55;45.33;;;20.15;;
41077;SDS011;26823;42.662;23.352;2023-01-15T21:31:20;44.90;;;20.77;;
41077;SDS011;26823;42.662;23.352;2023-01-15T21:33:46;34.83;;;20.02;;
41077;SDS011;26823;42.662;23.352;2023-01-15T21:36:12;39.42;;;19.48;;
41077;SDS011;26823;42.662;23.352;2023-01-15T21:38:39;40.10;;;20.20;;
41077;SDS011;26823;42.662;23.352;2023-01-15T21:41:11;33.70;;;18.25;;
41077;SDS011;26823;42.662;23.352;2023-01-15T21:43:38;35.47;;;17.85;;
41077;SDS011;26823;42.662;23.352;2023-01-15T21:46:22;37.72;;;19.08;;
41077;SDS011;26823;42.662;23.352;2023-01-15T21:48:51;37.90;;;18.58;;
41077;SDS011;26823;42.662;23.352;2023-01-15T21:51:21;36.42;;;18.55;;
41077;SDS011;26823;42.662;23.352;2023-01-15T21:53:46;41.92;;;19.02;;
41077;SDS011;26823;42.662;23.352;2023-01-15T21:56:12;33.83;;;17.00;;
41077;SDS011;26823;42.662;23.352;2023-01-15T21:58:37;34.70;;;17.92;;
41077;SDS011;26823;42.662;23.352;2023-01-15T22:01:21;42.08;;;19.35;;
41077;SDS011;26823;42.662;23.352;2023-01-15T22:03:47;30.55;;;16.13;;
41077;SDS011;26823;42.662;23.352;2023-01-15T22:06:12;40.15;;;17.90;;
41077;SDS011;26823;42.662;23.352;2023-01-15T22:08:37;40.67;;;18.40;;
41077;SDS011;26823;42.662;23.352;2023-01-15T22:11:04;30.63;;;17.75;;
41077;SDS011;26823;42.662;23.352;2023-01-15T22:13:32;33.97;;;18.77;;
41077;SDS011;26823;42.662;23.352;2023-01-15T22:15:57;34.50;;;18.73;;
41077;SDS011;26823;42.662;23.352;2023-01-15T22:18:30;37.85;;;17.27;;
41077;SDS011;26823;42.662;23.352;2023-01-15T22:23:26;30.98;;;16.58;;
41077;SDS011;26823;42.662;23.352;2023-01-15T22:25:51;32.40;;;16.38;;
41077;SDS011;26823;42.662;23.352;2023-01-15T22:28:17;40.38;;;17.98;;
41077;SDS011;26823;42.662;23.352;2023-01-15T22:30:43;40.38;;;18.40;;
41077;SDS011;26823;42.662;23.352;2023-01-15T22:33:08;36.78;;;17.55;;
41077;SDS011;26823;42.662;23.352;2023-01-15T22:35:34;34.72;;;17.55;;
41077;SDS011;26823;42.662;23.352;2023-01-15T22:38:00;31.20;;;17.27;;
41077;SDS011;26823;42.662;23.352;2023-01-15T22:40:25;35.35;;;19.20;;
41077;SDS011;26823;42.662;23.352;2023-01-15T22:42:51;38.25;;;18.20;;
41077;SDS011;26823;42.662;23.352;2023-01-15T22:45:16;30.55;;;17.50;;
41077;SDS011;26823;42.662;23.352;2023-01-15T22:47:42;31.70;;;16.88;;
41077;SDS011;26823;42.662;23.352;2023-01-15T22:50:07;35.00;;;17.23;;
41077;SDS011;26823;42.662;23.352;2023-01-15T22:52:33;30.92;;;15.57;;
41077;SDS011;26823;42.662;23.352;2023-01-15T22:54:59;30.73;;;16.92;;
41077;SDS011;26823;42.662;23.352;2023-01-15T22:57:25;41.28;;;18.02;;
41077;SDS011;26823;42.662;23.352;2023-01-15T22:59:50;36.80;;;15.98;;
41077;SDS011;26823;42.662;23.352;2023-01-15T23:02:16;35.00;;;17.30;;
41077;SDS011;26823;42.662;23.352;2023-01-15T23:04:42;32.95;;;15.65;;
41077;SDS011;26823;42.662;23.352;2023-01-15T23:07:08;30.20;;;16.40;;
41077;SDS011;26823;42.662;23.352;2023-01-15T23:09:34;36.75;;;18.17;;
41077;SDS011;26823;42.662;23.352;2023-01-15T23:11:59;37.92;;;16.73;;
41077;SDS011;26823;42.662;23.352;2023-01-15T23:14:25;28.25;;;16.02;;
41077;SDS011;26823;42.662;23.352;2023-01-15T23:16:51;36.80;;;17.50;;
41077;SDS011;26823;42.662;23.352;2023-01-15T23:19:17;31.20;;;16.40;;
41077;SDS011;26823;42.662;23.352;2023-01-15T23:21:43;29.27;;;14.45;;
41077;SDS011;26823;42.662;23.352;2023-01-15T23:24:09;31.73;;;15.05;;
41077;SDS011;26823;42.662;23.352;2023-01-15T23:26:35;31.13;;;15.85;;
41077;SDS011;26823;42.662;23.352;2023-01-15T23:29:01;33.67;;;16.70;;
41077;SDS011;26823;42.662;23.352;2023-01-15T23:31:27;37.25;;;16.10;;
41077;SDS011;26823;42.662;23.352;2023-01-15T23:33:53;29.13;;;14.98;;
41077;SDS011;26823;42.662;23.352;2023-01-15T23:36:19;34.78;;;15.60;;
41077;SDS011;26823;42.662;23.352;2023-01-15T23:38:44;29.58;;;16.05;;
41077;SDS011;26823;42.662;23.352;2023-01-15T23:41:13;32.05;;;14.38;;
41077;SDS011;26823;42.662;23.352;2023-01-15T23:43:41;26.80;;;14.52;;
41077;SDS011;26823;42.662;23.352;2023-01-15T23:49:05;28.38;;;14.85;;
41077;SDS011;26823;42.662;23.352;2023-01-15T23:51:32;27.48;;;13.43;;
41077;SDS011;26823;42.662;23.352;2023-01-15T23:53:59;34.03;;;14.57;;
41077;SDS011;26823;42.662;23.352;2023-01-15T23:56:24;24.63;;;14.68;;
41077;SDS011;26823;42.662;23.352;2023-01-15T23:58:50;33.65;;;16.25;;
